sensor_id;sensor_type;location;lat;lon;timestamp;pressure;altitude;pressure_sealevel;temperature;humidity
3917;BME280;1973;50.518;7.318;2023-05-19T00:02:21;101810.25;;;10.13;100.00
3917;BME280;1973;50.518;7.318;2023-05-19T00:04:48;101802.53;;;10.09;100.00
3917;BME280;1973;50.518;7.318;2023-05-19T00:07:17;101807.94;;;10.02;100.00
3917;BME280;1973;50.518;7.318;2023-05-19T00:09:45;101804.91;;;9.97;100.00
3917;BME280;1973;50.518;7.318;2023-05-19T00:12:12;101801.47;;;9.95;100.00
3917;BME280;1973;50.518;7.318;2023-05-19T00:14:39;101790.22;;;9.90;100.00
3917;BME280;1973;50.518;7.318;2023-05-19T00:17:05;101799.50;;;9.89;100.00
3917;BME280;1973;50.518;7.318;2023-05-19T00:19:33;101799.88;;;9.86;100.00
3917;BME280;1973;50.518;7.318;2023-05-19T00:21:59;101796.25;;;9.86;100.00
3917;BME280;1973;50.518;7.318;2023-05-19T00:24:26;101796.44;;;9.84;100.00
3917;BME280;1973;50.518;7.318;2023-05-19T00:26:52;101791.13;;;9.83;100.00
3917;BME280;1973;50.518;7.318;2023-05-19T00:29:19;101795.09;;;9.80;100.00
3917;BME280;1973;50.518;7.318;2023-05-19T00:31:45;101799.47;;;9.74;100.00
3917;BME280;1973;50.518;7.318;2023-05-19T00:34:12;101796.41;;;9.69;100.00
3917;BME280;1973;50.518;7.318;2023-05-19T00:36:38;101792.31;;;9.65;100.00
3917;BME280;1973;50.518;7.318;2023-05-19T00:39:05;101798.56;;;9.59;100.00
3917;BME280;1973;50.518;7.318;2023-05-19T00:41:31;101792.25;;;9.51;100.00
3917;BME280;1973;50.518;7.318;2023-05-19T00:43:58;101785.41;;;9.47;100.00
3917;BME280;1973;50.518;7.318;2023-05-19T00:46:24;101787.69;;;9.43;100.00
3917;BME280;1973;50.518;7.318;2023-05-19T00:48:51;101789.94;;;9.40;100.00
3917;BME280;1973;50.518;7.318;2023-05-19T00:51:18;101789.09;;;9.39;100.00
3917;BME280;1973;50.518;7.318;2023-05-19T00:53:45;101790.31;;;9.37;100.00
3917;BME280;1973;50.518;7.318;2023-05-19T00:56:15;101788.59;;;9.36;100.00
3917;BME280;1973;50.518;7.318;2023-05-19T00:58:43;101776.09;;;9.33;100.00
3917;BME280;1973;50.518;7.318;2023-05-19T01:01:10;101786.91;;;9.35;100.00
3917;BME280;1973;50.518;7.318;2023-05-19T01:03:42;101790.69;;;9.34;100.00
3917;BME280;1973;50.518;7.318;2023-05-19T01:06:09;101792.75;;;9.32;100.00
3917;BME280;1973;50.518;7.318;2023-05-19T01:08:37;101793.97;;;9.29;100.00
3917;BME280;1973;50.518;7.318;2023-05-19T01:11:05;101793.31;;;9.27;100.00
3917;BME280;1973;50.518;7.318;2023-05-19T01:13:33;101790.09;;;9.23;100.00
3917;BME280;1973;50.518;7.318;2023-05-19T01:16:54;101792.34;;;9.20;100.00
3917;BME280;1973;50.518;7.318;2023-05-19T01:27:39;101799.19;;;8.93;100.00
3917;BME280;1973;50.518;7.318;2023-05-19T01:30:11;101793.22;;;8.90;100.00
3917;BME280;1973;50.518;7.318;2023-05-19T01:32:43;101797.84;;;8.89;100.00
3917;BME280;1973;50.518;7.318;2023-05-19T01:35:11;101804.72;;;8.85;100.00
3917;BME280;1973;50.518;7.318;2023-05-19T01:37:40;101804.06;;;8.83;100.00
3917;BME280;1973;50.518;7.318;2023-05-19T01:40:07;101793.09;;;8.83;100.00
3917;BME280;1973;50.518;7.318;2023-05-19T01:42:36;101791.72;;;8.79;100.00
3917;BME280;1973;50.518;7.318;2023-05-19T01:45:06;101790.38;;;8.75;100.00
3917;BME280;1973;50.518;7.318;2023-05-19T01:47:39;101780.94;;;8.69;100.00
3917;BME280;1973;50.518;7.318;2023-05-19T01:50:06;101791.78;;;8.63;100.00
3917;BME280;1973;50.518;7.318;2023-05-19T01:52:33;101790.94;;;8.62;100.00
3917;BME280;1973;50.518;7.318;2023-05-19T01:54:59;101787.34;;;8.62;100.00
3917;BME280;1973;50.518;7.318;2023-05-19T02:03:13;101787.03;;;8.57;100.00
3917;BME280;1973;50.518;7.318;2023-05-19T02:09:01;101790.16;;;8.46;100.00
3917;BME280;1973;50.518;7.318;2023-05-19T02:11:36;101792.41;;;8.42;100.00
3917;BME280;1973;50.518;7.318;2023-05-19T02:14:12;101795.69;;;8.38;100.00
3917;BME280;1973;50.518;7.318;2023-05-19T02:16:44;101784.38;;;8.32;100.00
3917;BME280;1973;50.518;7.318;2023-05-19T02:19:28;101787.09;;;8.24;100.00
3917;BME280;1973;50.518;7.318;2023-05-19T02:21:55;101794.66;;;8.22;100.00
3917;BME280;1973;50.518;7.318;2023-05-19T02:24:22;101795.00;;;8.19;100.00
3917;BME280;1973;50.518;7.318;2023-05-19T02:26:49;101795.38;;;8.16;100.00
3917;BME280;1973;50.518;7.318;2023-05-19T02:29:17;101800.88;;;8.08;100.00
3917;BME280;1973;50.518;7.318;2023-05-19T02:31:44;101798.47;;;8.05;100.00
3917;BME280;1973;50.518;7.318;2023-05-19T02:34:10;101798.47;;;8.05;100.00
3917;BME280;1973;50.518;7.318;2023-05-19T02:36:39;101802.25;;;8.04;100.00
3917;BME280;1973;50.518;7.318;2023-05-19T02:39:11;101815.25;;;8.02;100.00
3917;BME280;1973;50.518;7.318;2023-05-19T02:41:38;101804.84;;;7.98;100.00
3917;BME280;1973;50.518;7.318;2023-05-19T02:44:04;101806.72;;;7.97;100.00
3917;BME280;1973;50.518;7.318;2023-05-19T02:46:31;101811.34;;;7.97;100.00
3917;BME280;1973;50.518;7.318;2023-05-19T02:48:58;101806.72;;;7.97;100.00
3917;BME280;1973;50.518;7.318;2023-05-19T02:51:24;101807.91;;;7.95;100.00
3917;BME280;1973;50.518;7.318;2023-05-19T02:53:51;101803.13;;;7.89;100.00
3917;BME280;1973;50.518;7.318;2023-05-19T02:56:17;101808.09;;;7.85;100.00
3917;BME280;1973;50.518;7.318;2023-05-19T02:58:46;101804.69;;;7.83;100.00
3917;BME280;1973;50.518;7.318;2023-05-19T03:01:13;101802.25;;;7.80;100.00
3917;BME280;1973;50.518;7.318;2023-05-19T03:03:39;101804.34;;;7.78;100.00
3917;BME280;1973;50.518;7.318;2023-05-19T03:06:06;101808.44;;;7.74;100.00
3917;BME280;1973;50.518;7.318;2023-05-19T03:08:34;101800.56;;;7.71;100.00
3917;BME280;1973;50.518;7.318;2023-05-19T03:11:01;101806.22;;;7.69;100.00
3917;BME280;1973;50.518;7.318;2023-05-19T03:13:28;101800.22;;;7.66;100.00
3917;BME280;1973;50.518;7.318;2023-05-19T03:15:54;101801.09;;;7.58;100.00
3917;BME280;1973;50.518;7.318;2023-05-19T03:18:25;101806.06;;;7.55;100.00
3917;BME280;1973;50.518;7.318;2023-05-19T03:20:52;101795.44;;;7.52;100.00
3917;BME280;1973;50.518;7.318;2023-05-19T03:23:21;101798.19;;;7.52;100.00
3917;BME280;1973;50.518;7.318;2023-05-19T03:25:48;101798.69;;;7.47;100.00
3917;BME280;1973;50.518;7.318;2023-05-19T03:28:14;101801.63;;;7.46;100.00
3917;BME280;1973;50.518;7.318;2023-05-19T03:30:42;101788.06;;;7.44;100.00
3917;BME280;1973;50.518;7.318;2023-05-19T03:33:08;101788.94;;;7.45;100.00
3917;BME280;1973;50.518;7.318;2023-05-19T03:35:35;101788.94;;;7.45;100.00
3917;BME280;1973;50.518;7.318;2023-05-19T03:38:02;101795.09;;;7.39;100.00
3917;BME280;1973;50.518;7.318;2023-05-19T03:40:28;101785.50;;;7.34;100.00
3917;BME280;1973;50.518;7.318;2023-05-19T03:42:55;101794.59;;;7.35;100.00
3917;BME280;1973;50.518;7.318;2023-05-19T03:45:22;101795.75;;;7.32;100.00
3917;BME280;1973;50.518;7.318;2023-05-19T03:47:48;101796.97;;;7.30;100.00
3917;BME280;1973;50.518;7.318;2023-05-19T03:50:15;101807.06;;;7.29;100.00
3917;BME280;1973;50.518;7.318;2023-05-19T03:52:41;101801.75;;;7.28;100.00
3917;BME280;1973;50.518;7.318;2023-05-19T03:55:11;101799.19;;;7.26;100.00
3917;BME280;1973;50.518;7.318;2023-05-19T03:57:37;101804.81;;;7.25;100.00
3917;BME280;1973;50.518;7.318;2023-05-19T04:00:04;101805.69;;;7.25;100.00
3917;BME280;1973;50.518;7.318;2023-05-19T04:02:31;101806.72;;;7.24;100.00
3917;BME280;1973;50.518;7.318;2023-05-19T04:04:58;101803.13;;;7.24;100.00
3917;BME280;1973;50.518;7.318;2023-05-19T04:07:24;101806.19;;;7.21;100.00
3917;BME280;1973;50.518;7.318;2023-05-19T04:09:51;101798.84;;;7.21;100.00
3917;BME280;1973;50.518;7.318;2023-05-19T04:12:17;101802.78;;;7.19;100.00
3917;BME280;1973;50.518;7.318;2023-05-19T04:14:43;101808.09;;;7.20;100.00
3917;BME280;1973;50.518;7.318;2023-05-19T04:17:10;101812.53;;;7.21;100.00
3917;BME280;1973;50.518;7.318;2023-05-19T04:19:37;101811.50;;;7.22;100.00
3917;BME280;1973;50.518;7.318;2023-05-19T04:22:03;101812.03;;;7.26;100.00
3917;BME280;1973;50.518;7.318;2023-05-19T04:24:30;101816.31;;;7.28;100.00
3917;BME280;1973;50.518;7.318;2023-05-19T04:26:58;101810.66;;;7.30;100.00
3917;BME280;1973;50.518;7.318;2023-05-19T04:29:28;101817.69;;;7.32;100.00
3917;BME280;1973;50.518;7.318;2023-05-19T04:31:55;101812.91;;;7.34;100.00
3917;BME280;1973;50.518;7.318;2023-05-19T04:34:22;101814.78;;;7.34;100.00
3917;BME280;1973;50.518;7.318;2023-05-19T04:36:48;101804.69;;;7.34;100.00
3917;BME280;1973;50.518;7.318;2023-05-19T04:39:18;101813.75;;;7.35;100.00
3917;BME280;1973;50.518;7.318;2023-05-19T04:41:45;101812.72;;;7.36;100.00
3917;BME280;1973;50.518;7.318;2023-05-19T04:44:11;101811.69;;;7.37;100.00
3917;BME280;1973;50.518;7.318;2023-05-19T04:46:38;101805.34;;;7.37;100.00
3917;BME280;1973;50.518;7.318;2023-05-19T04:49:05;101808.09;;;7.37;100.00
3917;BME280;1973;50.518;7.318;2023-05-19T04:51:31;101810.69;;;7.38;100.00
3917;BME280;1973;50.518;7.318;2023-05-19T04:53:58;101807.59;;;7.41;100.00
3917;BME280;1973;50.518;7.318;2023-05-19T04:56:24;101805.53;;;7.43;100.00
3917;BME280;1973;50.518;7.318;2023-05-19T04:58:52;101815.97;;;7.48;100.00
3917;BME280;1973;50.518;7.318;2023-05-19T05:01:19;101816.50;;;7.51;100.00
3917;BME280;1973;50.518;7.318;2023-05-19T05:03:47;101817.00;;;7.55;100.00
3917;BME280;1973;50.518;7.318;2023-05-19T05:06:14;101817.53;;;7.58;100.00
3917;BME280;1973;50.518;7.318;2023-05-19T05:08:41;101808.13;;;7.61;100.00
3917;BME280;1973;50.518;7.318;2023-05-19T05:11:08;101817.03;;;7.63;100.00
3917;BME280;1973;50.518;7.318;2023-05-19T05:13:35;101809.31;;;7.66;100.00
3917;BME280;1973;50.518;7.318;2023-05-19T05:16:01;101810.69;;;7.70;100.00
3917;BME280;1973;50.518;7.318;2023-05-19T05:18:32;101812.91;;;7.75;100.00
3917;BME280;1973;50.518;7.318;2023-05-19T05:20:59;101814.09;;;7.80;100.00
3917;BME280;1973;50.518;7.318;2023-05-19T05:23:26;101808.09;;;7.85;100.00
3917;BME280;1973;50.518;7.318;2023-05-19T05:25:53;101819.22;;;7.92;100.00
3917;BME280;1973;50.518;7.318;2023-05-19T05:28:19;101811.00;;;8.00;100.00
3917;BME280;1973;50.518;7.318;2023-05-19T05:30:46;101808.03;;;8.09;100.00
3917;BME280;1973;50.518;7.318;2023-05-19T05:33:12;101808.72;;;8.19;100.00
3917;BME280;1973;50.518;7.318;2023-05-19T05:35:39;101806.66;;;8.29;100.00
3917;BME280;1973;50.518;7.318;2023-05-19T05:38:06;101814.53;;;8.41;100.00
3917;BME280;1973;50.518;7.318;2023-05-19T05:40:33;101814.31;;;8.50;100.00
3917;BME280;1973;50.518;7.318;2023-05-19T05:42:59;101805.88;;;8.60;100.00
3917;BME280;1973;50.518;7.318;2023-05-19T05:45:26;101798.28;;;8.70;100.00
3917;BME280;1973;50.518;7.318;2023-05-19T05:47:52;101806.97;;;8.82;100.00
3917;BME280;1973;50.518;7.318;2023-05-19T05:50:19;101801.25;;;8.91;100.00
3917;BME280;1973;50.518;7.318;2023-05-19T05:52:47;101796.56;;;9.00;100.00
3917;BME280;1973;50.518;7.318;2023-05-19T05:55:15;101803.38;;;9.12;100.00
3917;BME280;1973;50.518;7.318;2023-05-19T05:57:42;101795.75;;;9.22;100.00
3917;BME280;1973;50.518;7.318;2023-05-19T06:00:09;101796.56;;;9.31;100.00
3917;BME280;1973;50.518;7.318;2023-05-19T06:02:43;101795.81;;;9.37;100.00
3917;BME280;1973;50.518;7.318;2023-05-19T06:05:12;101786.66;;;9.44;100.00
3917;BME280;1973;50.518;7.318;2023-05-19T06:07:39;101791.88;;;9.54;100.00
3917;BME280;1973;50.518;7.318;2023-05-19T06:10:07;101785.94;;;9.65;100.00
3917;BME280;1973;50.518;7.318;2023-05-19T06:12:34;101785.88;;;9.73;100.00
3917;BME280;1973;50.518;7.318;2023-05-19T06:15:02;101785.44;;;9.84;100.00
3917;BME280;1973;50.518;7.318;2023-05-19T06:17:28;101785.84;;;9.96;100.00
3917;BME280;1973;50.518;7.318;2023-05-19T06:19:55;101781.78;;;10.06;100.00
3917;BME280;1973;50.518;7.318;2023-05-19T06:22:21;101780.69;;;10.15;100.00
3917;BME280;1973;50.518;7.318;2023-05-19T06:24:48;101775.75;;;10.25;100.00
3917;BME280;1973;50.518;7.318;2023-05-19T06:27:14;101781.16;;;10.34;100.00
3917;BME280;1973;50.518;7.318;2023-05-19T06:29:41;101781.06;;;10.42;100.00
3917;BME280;1973;50.518;7.318;2023-05-19T06:32:07;101780.31;;;10.48;100.00
3917;BME280;1973;50.518;7.318;2023-05-19T06:34:35;101778.31;;;10.56;100.00
3917;BME280;1973;50.518;7.318;2023-05-19T06:37:03;101770.78;;;10.65;100.00
3917;BME280;1973;50.518;7.318;2023-05-19T06:39:29;101778.94;;;10.73;100.00
3917;BME280;1973;50.518;7.318;2023-05-19T06:41:56;101773.31;;;10.81;100.00
3917;BME280;1973;50.518;7.318;2023-05-19T06:44:23;101772.34;;;10.89;100.00
3917;BME280;1973;50.518;7.318;2023-05-19T06:46:50;101766.75;;;10.97;100.00
3917;BME280;1973;50.518;7.318;2023-05-19T06:49:16;101764.06;;;11.03;100.00
3917;BME280;1973;50.518;7.318;2023-05-19T06:51:43;101755.66;;;11.11;100.00
3917;BME280;1973;50.518;7.318;2023-05-19T06:54:09;101759.81;;;11.22;100.00
3917;BME280;1973;50.518;7.318;2023-05-19T06:56:38;101762.22;;;11.32;100.00
3917;BME280;1973;50.518;7.318;2023-05-19T06:59:04;101762.09;;;11.40;100.00
3917;BME280;1973;50.518;7.318;2023-05-19T07:01:31;101754.75;;;11.47;100.00
3917;BME280;1973;50.518;7.318;2023-05-19T07:03:57;101758.22;;;11.55;100.00
3917;BME280;1973;50.518;7.318;2023-05-19T07:06:24;101760.00;;;11.63;100.00
3917;BME280;1973;50.518;7.318;2023-05-19T07:08:51;101752.25;;;11.73;100.00
3917;BME280;1973;50.518;7.318;2023-05-19T07:11:18;101739.34;;;11.80;100.00
3917;BME280;1973;50.518;7.318;2023-05-19T07:13:44;101747.50;;;11.88;100.00
3917;BME280;1973;50.518;7.318;2023-05-19T07:16:11;101747.97;;;11.98;100.00
3917;BME280;1973;50.518;7.318;2023-05-19T07:18:37;101743.59;;;12.10;100.00
3917;BME280;1973;50.518;7.318;2023-05-19T07:21:04;101735.81;;;12.20;100.00
3917;BME280;1973;50.518;7.318;2023-05-19T07:23:30;101737.56;;;12.28;100.00
3917;BME280;1973;50.518;7.318;2023-05-19T07:25:57;101743.56;;;12.38;100.00
3917;BME280;1973;50.518;7.318;2023-05-19T07:28:23;101742.97;;;12.49;100.00
3917;BME280;1973;50.518;7.318;2023-05-19T07:30:50;101732.19;;;12.61;100.00
3917;BME280;1973;50.518;7.318;2023-05-19T07:33:17;101724.16;;;12.73;100.00
3917;BME280;1973;50.518;7.318;2023-05-19T07:35:43;101727.59;;;12.81;100.00
3917;BME280;1973;50.518;7.318;2023-05-19T07:38:10;101721.66;;;12.91;100.00
3917;BME280;1973;50.518;7.318;2023-05-19T07:40:37;101723.41;;;12.98;100.00
3917;BME280;1973;50.518;7.318;2023-05-19T07:43:03;101724.25;;;13.05;100.00
3917;BME280;1973;50.518;7.318;2023-05-19T07:45:30;101721.34;;;13.13;100.00
3917;BME280;1973;50.518;7.318;2023-05-19T07:47:56;101721.78;;;13.24;100.00
3917;BME280;1973;50.518;7.318;2023-05-19T07:50:23;101719.66;;;13.32;100.00
3917;BME280;1973;50.518;7.318;2023-05-19T07:52:50;101712.88;;;13.41;100.00
3917;BME280;1973;50.518;7.318;2023-05-19T07:55:17;101709.03;;;13.49;100.00
3917;BME280;1973;50.518;7.318;2023-05-19T07:57:44;101710.53;;;13.58;100.00
3917;BME280;1973;50.518;7.318;2023-05-19T08:00:11;101706.91;;;13.64;100.00
3917;BME280;1973;50.518;7.318;2023-05-19T08:02:39;101712.66;;;13.76;100.00
3917;BME280;1973;50.518;7.318;2023-05-19T08:05:06;101708.59;;;13.85;100.00
3917;BME280;1973;50.518;7.318;2023-05-19T08:07:35;101711.97;;;13.93;100.00
3917;BME280;1973;50.518;7.318;2023-05-19T08:10:02;101708.34;;;14.06;100.00
3917;BME280;1973;50.518;7.318;2023-05-19T08:12:28;101697.25;;;14.12;100.00
3917;BME280;1973;50.518;7.318;2023-05-19T08:14:55;101693.63;;;14.19;100.00
3917;BME280;1973;50.518;7.318;2023-05-19T08:17:26;101696.13;;;14.27;100.00
3917;BME280;1973;50.518;7.318;2023-05-19T08:19:53;101694.19;;;14.34;99.33
3917;BME280;1973;50.518;7.318;2023-05-19T08:22:19;101687.19;;;14.44;99.38
3917;BME280;1973;50.518;7.318;2023-05-19T08:24:46;101681.16;;;14.54;99.03
3917;BME280;1973;50.518;7.318;2023-05-19T08:27:14;101676.84;;;14.65;98.75
3917;BME280;1973;50.518;7.318;2023-05-19T08:29:42;101671.25;;;14.71;98.32
3917;BME280;1973;50.518;7.318;2023-05-19T08:32:08;101663.53;;;14.80;97.79
3917;BME280;1973;50.518;7.318;2023-05-19T08:34:38;101665.41;;;14.86;97.34
3917;BME280;1973;50.518;7.318;2023-05-19T08:37:04;101662.19;;;14.95;97.50
3917;BME280;1973;50.518;7.318;2023-05-19T08:39:31;101666.38;;;15.04;97.33
3917;BME280;1973;50.518;7.318;2023-05-19T08:41:59;101658.63;;;15.13;95.54
3917;BME280;1973;50.518;7.318;2023-05-19T08:44:26;101646.19;;;15.22;94.29
3917;BME280;1973;50.518;7.318;2023-05-19T08:46:54;101649.06;;;15.34;93.64
3917;BME280;1973;50.518;7.318;2023-05-19T08:49:25;101647.25;;;15.46;91.63
3917;BME280;1973;50.518;7.318;2023-05-19T08:52:07;101644.63;;;15.57;89.55
3917;BME280;1973;50.518;7.318;2023-05-19T08:54:41;101643.88;;;15.69;89.77
3917;BME280;1973;50.518;7.318;2023-05-19T08:57:11;101636.72;;;15.79;89.93
3917;BME280;1973;50.518;7.318;2023-05-19T08:59:39;101636.59;;;15.92;88.59
3917;BME280;1973;50.518;7.318;2023-05-19T09:02:08;101627.94;;;16.00;85.71
3917;BME280;1973;50.518;7.318;2023-05-19T09:04:37;101632.50;;;16.13;84.47
3917;BME280;1973;50.518;7.318;2023-05-19T09:07:05;101624.72;;;16.22;82.64
3917;BME280;1973;50.518;7.318;2023-05-19T09:09:31;101615.97;;;16.36;80.56
3917;BME280;1973;50.518;7.318;2023-05-19T09:11:58;101614.47;;;16.52;78.01
3917;BME280;1973;50.518;7.318;2023-05-19T09:14:24;101616.09;;;16.60;79.28
3917;BME280;1973;50.518;7.318;2023-05-19T09:16:51;101614.31;;;16.65;77.25
3917;BME280;1973;50.518;7.318;2023-05-19T09:19:18;101613.38;;;16.71;76.87
3917;BME280;1973;50.518;7.318;2023-05-19T09:21:56;101603.47;;;16.75;70.08
3917;BME280;1973;50.518;7.318;2023-05-19T09:24:25;101598.81;;;16.87;74.06
3917;BME280;1973;50.518;7.318;2023-05-19T09:26:54;101591.69;;;16.91;71.06
3917;BME280;1973;50.518;7.318;2023-05-19T09:29:25;101602.69;;;16.98;69.20
3917;BME280;1973;50.518;7.318;2023-05-19T09:31:54;101603.31;;;17.12;70.19
3917;BME280;1973;50.518;7.318;2023-05-19T09:34:21;101604.34;;;17.29;71.24
3917;BME280;1973;50.518;7.318;2023-05-19T09:36:50;101592.97;;;17.42;69.56
3917;BME280;1973;50.518;7.318;2023-05-19T09:39:21;101604.34;;;17.52;64.01
3917;BME280;1973;50.518;7.318;2023-05-19T09:41:55;101587.53;;;17.70;60.51
3917;BME280;1973;50.518;7.318;2023-05-19T09:44:25;101582.81;;;17.82;62.05
3917;BME280;1973;50.518;7.318;2023-05-19T09:46:56;101586.78;;;17.98;61.82
3917;BME280;1973;50.518;7.318;2023-05-19T09:49:25;101572.81;;;18.21;60.34
3917;BME280;1973;50.518;7.318;2023-05-19T09:51:56;101562.19;;;18.35;57.35
3917;BME280;1973;50.518;7.318;2023-05-19T09:54:23;101563.84;;;18.47;56.68
3917;BME280;1973;50.518;7.318;2023-05-19T09:57:00;101571.84;;;18.56;55.04
3917;BME280;1973;50.518;7.318;2023-05-19T09:59:27;101561.88;;;18.60;54.78
3917;BME280;1973;50.518;7.318;2023-05-19T10:01:59;101565.63;;;18.65;54.27
3917;BME280;1973;50.518;7.318;2023-05-19T10:04:27;101563.22;;;18.57;52.67
3917;BME280;1973;50.518;7.318;2023-05-19T10:06:56;101566.94;;;18.63;52.37
3917;BME280;1973;50.518;7.318;2023-05-19T10:09:27;101557.50;;;18.64;51.76
3917;BME280;1973;50.518;7.318;2023-05-19T10:11:55;101554.53;;;18.70;51.89
3917;BME280;1973;50.518;7.318;2023-05-19T10:14:27;101552.63;;;18.87;50.13
3917;BME280;1973;50.518;7.318;2023-05-19T10:16:57;101548.25;;;19.08;48.61
3917;BME280;1973;50.518;7.318;2023-05-19T10:19:26;101550.44;;;19.23;50.12
3917;BME280;1973;50.518;7.318;2023-05-19T10:21:53;101551.94;;;19.30;49.27
3917;BME280;1973;50.518;7.318;2023-05-19T10:24:20;101554.09;;;19.40;48.48
3917;BME280;1973;50.518;7.318;2023-05-19T10:26:54;101556.22;;;19.50;48.02
3917;BME280;1973;50.518;7.318;2023-05-19T10:29:26;101541.47;;;19.54;48.70
3917;BME280;1973;50.518;7.318;2023-05-19T10:31:55;101543.31;;;19.65;49.10
3917;BME280;1973;50.518;7.318;2023-05-19T10:34:53;101539.06;;;19.63;45.46
3917;BME280;1973;50.518;7.318;2023-05-19T10:38:01;101533.22;;;19.64;44.77
3917;BME280;1973;50.518;7.318;2023-05-19T10:40:52;101534.50;;;19.95;47.75
3917;BME280;1973;50.518;7.318;2023-05-19T10:46:09;101532.72;;;20.32;47.66
3917;BME280;1973;50.518;7.318;2023-05-19T10:48:35;101526.56;;;20.30;46.42
3917;BME280;1973;50.518;7.318;2023-05-19T10:51:02;101528.59;;;20.35;45.55
3917;BME280;1973;50.518;7.318;2023-05-19T10:53:31;101525.38;;;20.48;45.69
3917;BME280;1973;50.518;7.318;2023-05-19T10:56:00;101524.75;;;20.68;44.86
3917;BME280;1973;50.518;7.318;2023-05-19T11:01:15;101517.34;;;20.57;42.77
3917;BME280;1973;50.518;7.318;2023-05-19T11:03:53;101512.44;;;20.42;42.23
3917;BME280;1973;50.518;7.318;2023-05-19T11:06:25;101515.25;;;20.69;43.95
3917;BME280;1973;50.518;7.318;2023-05-19T11:09:11;101516.78;;;20.86;43.68
3917;BME280;1973;50.518;7.318;2023-05-19T11:11:48;101515.53;;;21.04;44.34
3917;BME280;1973;50.518;7.318;2023-05-19T11:14:17;101509.88;;;20.94;42.71
3917;BME280;1973;50.518;7.318;2023-05-19T11:16:48;101506.00;;;21.00;43.24
3917;BME280;1973;50.518;7.318;2023-05-19T11:19:27;101494.13;;;21.20;41.39
3917;BME280;1973;50.518;7.318;2023-05-19T11:21:56;101488.66;;;21.40;42.69
3917;BME280;1973;50.518;7.318;2023-05-19T11:27:29;101488.97;;;21.91;41.54
3917;BME280;1973;50.518;7.318;2023-05-19T11:32:34;101485.16;;;22.27;39.87
3917;BME280;1973;50.518;7.318;2023-05-19T11:35:04;101485.22;;;22.42;39.99
3917;BME280;1973;50.518;7.318;2023-05-19T11:37:31;101476.78;;;22.52;40.21
3917;BME280;1973;50.518;7.318;2023-05-19T11:40:00;101483.03;;;22.74;40.22
3917;BME280;1973;50.518;7.318;2023-05-19T11:42:27;101470.66;;;22.80;38.19
3917;BME280;1973;50.518;7.318;2023-05-19T11:44:54;101474.88;;;22.88;38.13
3917;BME280;1973;50.518;7.318;2023-05-19T11:47:21;101462.25;;;23.06;37.02
3917;BME280;1973;50.518;7.318;2023-05-19T11:49:50;101466.41;;;23.28;38.23
3917;BME280;1973;50.518;7.318;2023-05-19T11:52:21;101462.72;;;23.58;38.07
3917;BME280;1973;50.518;7.318;2023-05-19T11:54:48;101464.03;;;23.81;37.12
3917;BME280;1973;50.518;7.318;2023-05-19T11:57:14;101455.81;;;24.00;38.39
3917;BME280;1973;50.518;7.318;2023-05-19T11:59:41;101449.84;;;24.16;37.49
3917;BME280;1973;50.518;7.318;2023-05-19T12:02:17;101445.59;;;24.24;36.38
3917;BME280;1973;50.518;7.318;2023-05-19T12:04:44;101452.84;;;24.35;36.33
3917;BME280;1973;50.518;7.318;2023-05-19T12:07:11;101444.66;;;24.39;36.23
3917;BME280;1973;50.518;7.318;2023-05-19T12:09:39;101447.13;;;24.45;36.59
3917;BME280;1973;50.518;7.318;2023-05-19T12:12:06;101438.06;;;24.53;35.91
3917;BME280;1973;50.518;7.318;2023-05-19T12:14:33;101425.00;;;24.62;35.22
3917;BME280;1973;50.518;7.318;2023-05-19T12:17:17;101443.16;;;24.80;34.44
3917;BME280;1973;50.518;7.318;2023-05-19T12:19:49;101436.13;;;24.83;33.16
3917;BME280;1973;50.518;7.318;2023-05-19T12:22:16;101420.28;;;24.92;33.83
3917;BME280;1973;50.518;7.318;2023-05-19T12:24:45;101420.84;;;24.94;32.84
3917;BME280;1973;50.518;7.318;2023-05-19T12:27:19;101429.22;;;24.99;32.83
3917;BME280;1973;50.518;7.318;2023-05-19T12:29:49;101426.84;;;25.11;34.29
3917;BME280;1973;50.518;7.318;2023-05-19T12:32:23;101415.78;;;25.19;34.30
3917;BME280;1973;50.518;7.318;2023-05-19T12:34:51;101411.41;;;25.32;33.54
3917;BME280;1973;50.518;7.318;2023-05-19T12:37:18;101401.69;;;25.43;32.51
3917;BME280;1973;50.518;7.318;2023-05-19T12:39:44;101416.78;;;25.57;33.48
3917;BME280;1973;50.518;7.318;2023-05-19T12:42:11;101401.63;;;25.53;32.65
3917;BME280;1973;50.518;7.318;2023-05-19T12:44:45;101389.34;;;25.63;32.10
3917;BME280;1973;50.518;7.318;2023-05-19T12:47:16;101390.72;;;25.65;33.32
3917;BME280;1973;50.518;7.318;2023-05-19T12:49:59;101384.25;;;25.84;34.58
3917;BME280;1973;50.518;7.318;2023-05-19T12:52:27;101384.47;;;25.68;33.09
3917;BME280;1973;50.518;7.318;2023-05-19T12:54:58;101396.44;;;25.60;32.01
3917;BME280;1973;50.518;7.318;2023-05-19T12:57:26;101390.19;;;25.16;32.60
3917;BME280;1973;50.518;7.318;2023-05-19T13:00:16;101379.84;;;25.30;33.85
3917;BME280;1973;50.518;7.318;2023-05-19T13:05:29;101385.22;;;25.50;32.81
3917;BME280;1973;50.518;7.318;2023-05-19T13:08:15;101383.09;;;25.66;32.17
3917;BME280;1973;50.518;7.318;2023-05-19T13:10:43;101391.56;;;25.42;31.88
3917;BME280;1973;50.518;7.318;2023-05-19T13:13:11;101378.22;;;25.48;31.26
3917;BME280;1973;50.518;7.318;2023-05-19T13:15:40;101378.50;;;25.46;30.74
3917;BME280;1973;50.518;7.318;2023-05-19T13:18:10;101370.59;;;25.72;32.93
3917;BME280;1973;50.518;7.318;2023-05-19T13:20:38;101363.66;;;25.83;31.22
3917;BME280;1973;50.518;7.318;2023-05-19T13:23:06;101374.38;;;26.05;32.46
3917;BME280;1973;50.518;7.318;2023-05-19T13:25:33;101362.78;;;26.25;31.68
3917;BME280;1973;50.518;7.318;2023-05-19T13:28:00;101363.69;;;26.39;31.61
3917;BME280;1973;50.518;7.318;2023-05-19T13:30:33;101357.53;;;26.37;31.02
3917;BME280;1973;50.518;7.318;2023-05-19T13:33:01;101365.13;;;25.99;30.62
3917;BME280;1973;50.518;7.318;2023-05-19T13:35:28;101354.69;;;26.00;30.83
3917;BME280;1973;50.518;7.318;2023-05-19T13:37:56;101351.50;;;26.25;30.65
3917;BME280;1973;50.518;7.318;2023-05-19T13:40:22;101347.19;;;26.46;29.49
3917;BME280;1973;50.518;7.318;2023-05-19T13:42:49;101344.66;;;26.77;31.07
3917;BME280;1973;50.518;7.318;2023-05-19T13:45:16;101344.88;;;26.81;30.74
3917;BME280;1973;50.518;7.318;2023-05-19T13:47:43;101343.19;;;27.12;30.94
3917;BME280;1973;50.518;7.318;2023-05-19T13:50:09;101331.97;;;27.34;30.06